Time;durP1;ratioP1;P1;durP2;ratioP2;P2;SDS_P1;SDS_P2;PMS_P1;PMS_P2;Temp;Humidity;BMP_temperature;BMP_pressure;BME280_temperature;BME280_humidity;BME280_pressure;Samples;Min_cycle;Max_cycle;Signal;HPM_P1;HPM_P2
2022/08/23 00:01:40;;;;;;;11.70;6.60;;;;;;;16.05;100.00;100343.41;4997494;28;20041;-79
2022/08/23 00:04:10;;;;;;;18.25;6.47;;;;;;;16.06;100.00;100333.38;4968793;28;20038;-78
2022/08/23 00:06:35;;;;;;;15.93;5.35;;;;;;;16.02;100.00;100329.47;5003678;28;20116;-79
2022/08/23 00:09:01;;;;;;;13.00;5.75;;;;;;;16.06;100.00;100336.09;5005515;28;20161;-79
2022/08/23 00:11:34;;;;;;;13.55;5.15;;;;;;;16.07;100.00;100336.94;4986147;28;20984;-78
2022/08/23 00:14:05;;;;;;;17.00;7.10;;;;;;;16.07;100.00;100337.78;5010228;28;20034;-79
2022/08/23 00:16:30;;;;;;;11.90;4.93;;;;;;;16.09;100.00;100338.38;5000260;28;20399;-79
2022/08/23 00:18:56;;;;;;;14.85;4.25;;;;;;;16.07;100.00;100335.06;5005867;28;20042;-79
2022/08/23 00:21:22;;;;;;;11.07;6.03;;;;;;;15.99;100.00;100319.06;4989597;28;20080;-79
2022/08/23 00:23:47;;;;;;;14.77;6.18;;;;;;;16.02;100.00;100337.59;4992734;28;20038;-79
2022/08/23 00:26:13;;;;;;;11.95;6.32;;;;;;;15.89;100.00;100335.00;4973751;28;20400;-79
2022/08/23 00:28:39;;;;;;;14.75;5.93;;;;;;;15.76;100.00;100344.06;4967063;28;20042;-79
2022/08/23 00:31:05;;;;;;;14.75;6.45;;;;;;;15.70;100.00;100345.78;4988752;28;20101;-79
2022/08/23 00:33:30;;;;;;;18.90;6.22;;;;;;;15.70;100.00;100356.63;4987111;28;20606;-79
2022/08/23 00:35:56;;;;;;;13.45;5.70;;;;;;;15.67;100.00;100348.91;4983771;28;20038;-78
2022/08/23 00:38:22;;;;;;;14.52;6.10;;;;;;;15.66;100.00;100343.69;4989697;28;20092;-79
2022/08/23 00:40:51;;;;;;;18.85;6.57;;;;;;;15.69;100.00;100352.25;5006738;28;20092;-79
2022/08/23 00:49:11;;;;;;;14.73;5.95;;;;;;;15.42;100.00;100354.25;5006384;28;20104;-79
2022/08/23 00:51:46;;;;;;;13.57;6.70;;;;;;;15.15;100.00;100342.75;5000044;28;20087;-78
2022/08/23 00:54:14;;;;;;;18.35;6.63;;;;;;;15.02;100.00;100332.81;4988756;28;20533;-78
2022/08/23 00:56:40;;;;;;;12.63;6.15;;;;;;;14.89;100.00;100333.69;5006170;28;20457;-79
2022/08/23 00:59:06;;;;;;;15.27;6.70;;;;;;;14.84;100.00;100333.50;5003115;28;20095;-79
2022/08/23 01:01:32;;;;;;;14.60;6.53;;;;;;;14.77;100.00;100348.94;5005038;28;20117;-78
2022/08/23 01:03:58;;;;;;;11.05;6.22;;;;;;;14.72;100.00;100341.47;5007403;28;20076;-79
2022/08/23 01:06:41;;;;;;;14.23;6.45;;;;;;;14.72;100.00;100335.22;4982909;28;20030;-79
2022/08/23 01:09:13;;;;;;;;;;;;;;;14.70;100.00;100340.00;4989458;28;20029;-78
2022/08/23 01:12:00;;;;;;;16.55;6.72;;;;;;;14.72;100.00;100330.63;4989114;28;19917;-79
2022/08/23 01:14:32;;;;;;;13.60;5.95;;;;;;;14.72;100.00;100336.06;4985471;28;20502;-79
2022/08/23 01:17:02;;;;;;;13.93;6.50;;;;;;;14.79;100.00;100330.63;4972255;28;20132;-78
2022/08/23 01:19:34;;;;;;;16.17;6.32;;;;;;;14.88;100.00;100334.75;4984305;28;20042;-79
2022/08/23 01:22:15;;;;;;;17.60;7.10;;;;;;;15.00;100.00;100329.47;4974289;28;20621;-78
2022/08/23 01:24:42;;;;;;;18.90;7.70;;;;;;;15.10;100.00;100326.31;5001906;28;20503;-79
2022/08/23 01:27:11;;;;;;;16.08;7.60;;;;;;;15.15;100.00;100323.78;4984738;28;20117;-79
2022/08/23 01:29:36;;;;;;;19.92;8.00;;;;;;;15.23;100.00;100331.66;4980389;28;20391;-79
2022/08/23 01:32:02;;;;;;;22.08;7.38;;;;;;;15.25;100.00;100328.75;4988484;28;20137;-79
2022/08/23 01:34:28;;;;;;;22.58;6.70;;;;;;;15.25;100.00;100324.16;5000054;28;20049;-78
2022/08/23 01:36:55;;;;;;;13.18;7.22;;;;;;;15.27;100.00;100319.34;4996707;28;20452;-79
2022/08/23 01:39:21;;;;;;;16.30;6.88;;;;;;;15.26;100.00;100309.56;5000777;28;20042;-79
2022/08/23 01:41:46;;;;;;;19.45;7.07;;;;;;;15.22;100.00;100319.19;5004608;28;20144;-79
2022/08/23 01:44:13;;;;;;;12.55;6.15;;;;;;;15.24;100.00;100318.94;5001380;28;20480;-79
2022/08/23 01:46:43;;;;;;;17.85;7.30;;;;;;;15.24;100.00;100319.78;4966902;28;20042;-79
2022/08/23 01:49:09;;;;;;;17.95;7.25;;;;;;;15.24;100.00;100322.50;4987261;28;20692;-79
2022/08/23 01:51:36;;;;;;;13.57;6.28;;;;;;;15.25;100.00;100332.28;4980006;28;20038;-79
2022/08/23 01:54:01;;;;;;;20.48;6.93;;;;;;;15.11;100.00;100318.00;5001989;28;20038;-79
2022/08/23 01:56:28;;;;;;;20.10;7.30;;;;;;;15.22;100.00;100330.00;4990290;28;20037;-79
2022/08/23 01:58:54;;;;;;;15.93;6.63;;;;;;;15.15;100.00;100304.84;5006149;28;20045;-79
2022/08/23 02:01:20;;;;;;;20.45;7.15;;;;;;;15.12;100.00;100303.38;4996821;28;20057;-78
2022/08/23 02:03:45;;;;;;;16.55;6.35;;;;;;;15.32;100.00;100324.94;4985745;28;20030;-78
2022/08/23 02:06:11;;;;;;;12.27;6.30;;;;;;;15.35;100.00;100318.28;4978006;28;20472;-79
2022/08/23 02:11:22;;;;;;;16.42;6.38;;;;;;;15.40;100.00;100326.56;5000866;28;20049;-79
2022/08/23 02:13:50;;;;;;;15.02;6.50;;;;;;;15.45;100.00;100323.19;4985928;28;20038;-80
2022/08/23 02:16:25;;;;;;;14.70;6.18;;;;;;;15.46;100.00;100322.16;4999628;28;20496;-80
2022/08/23 02:18:51;;;;;;;13.07;5.38;;;;;;;15.48;100.00;100323.59;4996627;28;20032;-80
2022/08/23 02:21:18;;;;;;;11.25;6.10;;;;;;;15.48;100.00;100317.34;4999241;28;20069;-80
2022/08/23 02:23:44;;;;;;;15.05;5.70;;;;;;;15.53;100.00;100323.78;4971781;28;20129;-80
2022/08/23 02:26:09;;;;;;;13.90;4.72;;;;;;;15.53;100.00;100317.50;4999254;28;20038;-80
2022/08/23 02:28:35;;;;;;;11.43;6.00;;;;;;;15.52;100.00;100332.13;4990699;28;20092;-79
2022/08/23 02:31:01;;;;;;;13.68;5.80;;;;;;;15.45;100.00;100331.31;4998491;28;20070;-79
2022/08/23 02:33:27;;;;;;;12.68;4.68;;;;;;;15.33;100.00;100337.44;5005008;28;20065;-81
2022/08/23 02:35:53;;;;;;;10.27;4.47;;;;;;;15.25;100.00;100342.28;5007256;28;20125;-79
2022/08/23 02:38:19;;;;;;;11.70;4.55;;;;;;;15.09;100.00;100333.59;5001384;28;20465;-79
2022/08/23 02:40:44;;;;;;;9.88;3.08;;;;;;;15.05;100.00;100337.78;4985274;28;20046;-79
2022/08/23 02:43:10;;;;;;;7.95;2.50;;;;;;;15.01;100.00;100338.44;4987342;28;20094;-79
2022/08/23 02:45:37;;;;;;;7.05;2.30;;;;;;;14.94;100.00;100344.69;4989066;28;20041;-78
2022/08/23 02:48:03;;;;;;;7.93;2.78;;;;;;;14.84;100.00;100333.50;5001665;28;20096;-80
2022/08/23 02:50:29;;;;;;;7.35;2.70;;;;;;;14.80;100.00;100334.97;5004476;28;20034;-79
2022/08/23 02:52:56;;;;;;;6.90;2.45;;;;;;;14.51;100.00;100296.53;4986172;28;20044;-79
2022/08/23 02:55:22;;;;;;;4.63;1.60;;;;;;;14.71;100.00;100337.09;5002263;28;20128;-79
2022/08/23 02:57:48;;;;;;;7.40;2.30;;;;;;;14.66;100.00;100347.75;5001817;28;20044;-79
2022/08/23 03:00:14;;;;;;;5.63;2.28;;;;;;;14.62;100.00;100341.06;5004216;28;20033;-79
2022/08/23 03:02:44;;;;;;;9.43;2.15;;;;;;;14.62;100.00;100346.50;4972206;28;20037;-79
2022/08/23 03:05:10;;;;;;;5.88;1.75;;;;;;;14.58;100.00;100339.84;4998073;28;20113;-79
2022/08/23 03:07:35;;;;;;;9.98;1.92;;;;;;;14.58;100.00;100345.25;4987898;28;20041;-79
2022/08/23 03:10:05;;;;;;;12.07;2.45;;;;;;;14.56;100.00;100346.53;4985745;28;20045;-79
2022/08/23 03:12:31;;;;;;;7.20;2.10;;;;;;;14.53;100.00;100347.78;4996560;28;20042;-79
2022/08/23 03:14:57;;;;;;;5.93;1.80;;;;;;;14.48;100.00;100334.84;4984795;28;20044;-79
2022/08/23 03:17:23;;;;;;;7.15;2.00;;;;;;;14.48;100.00;100340.25;4987966;28;20034;-79
2022/08/23 03:19:49;;;;;;;10.90;2.75;;;;;;;14.48;100.00;100340.25;4983537;28;20499;-79
2022/08/23 03:22:14;;;;;;;6.22;1.33;;;;;;;14.48;100.00;100344.84;4990667;28;20104;-79
2022/08/23 03:24:40;;;;;;;9.77;2.80;;;;;;;14.48;100.00;100348.38;4985371;28;20034;-79
2022/08/23 03:27:06;;;;;;;7.63;2.63;;;;;;;14.44;100.00;100341.72;4982019;28;20046;-79
2022/08/23 03:29:32;;;;;;;13.07;1.80;;;;;;;14.40;100.00;100340.47;4982644;28;20037;-79
2022/08/23 03:31:59;;;;;;;6.95;1.77;;;;;;;14.47;100.00;100351.28;4988054;28;20514;-79
2022/08/23 03:34:25;;;;;;;7.40;1.60;;;;;;;14.45;100.00;100348.78;4996510;28;20038;-78
2022/08/23 03:36:50;;;;;;;11.32;2.30;;;;;;;14.44;100.00;100351.69;4968404;28;20538;-78
2022/08/23 03:39:16;;;;;;;7.30;1.80;;;;;;;14.45;100.00;100356.91;4996204;28;20064;-79
2022/08/23 03:41:44;;;;;;;15.93;2.85;;;;;;;14.45;100.00;100365.03;4973002;28;20030;-79
2022/08/23 03:44:09;;;;;;;11.00;2.70;;;;;;;14.45;100.00;100353.38;4977396;28;20049;-79
2022/08/23 03:46:36;;;;;;;8.88;1.65;;;;;;;14.45;100.00;100356.91;4998446;28;20033;-79
2022/08/23 03:49:02;;;;;;;10.68;2.38;;;;;;;14.44;100.00;100366.03;4983831;28;20463;-79
2022/08/23 03:51:29;;;;;;;9.50;2.28;;;;;;;14.36;100.00;100360.88;4980970;28;20042;-79
2022/08/23 03:53:54;;;;;;;16.13;3.03;;;;;;;14.38;100.00;100372.31;4984936;28;20038;-79
2022/08/23 03:56:26;;;;;;;4.88;2.05;;;;;;;14.29;100.00;100362.78;5002628;28;20034;-79
2022/08/23 03:58:54;;;;;;;18.35;2.67;;;;;;;14.25;100.00;100361.50;4998562;28;20121;-80
2022/08/23 04:01:20;;;;;;;5.35;1.80;;;;;;;14.13;100.00;100344.25;4998641;28;20034;-79
2022/08/23 04:03:49;;;;;;;8.98;1.92;;;;;;;14.13;100.00;100350.50;5002496;28;20051;-79
2022/08/23 04:06:16;;;;;;;9.95;2.25;;;;;;;14.12;100.00;100342.59;4988985;28;20117;-79
2022/08/23 04:08:42;;;;;;;7.25;2.13;;;;;;;14.12;100.00;100356.13;4965236;28;20458;-79
2022/08/23 04:11:08;;;;;;;10.30;1.50;;;;;;;14.13;100.00;100363.16;4988340;28;20108;-80
2022/08/23 04:13:34;;;;;;;6.78;1.40;;;;;;;14.17;100.00;100364.44;4994641;28;20484;-79
2022/08/23 04:16:02;;;;;;;8.70;1.60;;;;;;;14.20;100.00;100370.25;4983994;28;20042;-79
2022/08/23 04:18:30;;;;;;;12.40;2.42;;;;;;;14.21;100.00;100369.22;4996182;28;20644;-79
2022/08/23 04:20:57;;;;;;;11.48;2.03;;;;;;;14.16;100.00;100371.72;4979939;28;20038;-79
2022/08/23 04:23:24;;;;;;;6.78;1.60;;;;;;;14.00;100.00;100348.63;4988986;28;20507;-79
2022/08/23 04:25:50;;;;;;;6.82;1.60;;;;;;;14.04;100.00;100373.38;5001758;28;20061;-79
2022/08/23 04:28:15;;;;;;;6.68;1.77;;;;;;;13.94;100.00;100365.66;4995253;28;20464;-78
2022/08/23 04:30:41;;;;;;;9.82;2.40;;;;;;;13.94;100.00;100362.13;5001652;28;20504;-80
2022/08/23 04:33:07;;;;;;;7.50;2.15;;;;;;;13.84;100.00;100354.47;5000344;28;20392;-78
2022/08/23 04:35:33;;;;;;;10.77;1.88;;;;;;;13.95;100.00;100378.16;5005962;28;20421;-78
2022/08/23 04:37:58;;;;;;;8.73;2.15;;;;;;;13.98;100.00;100385.03;5002408;28;20087;-78
2022/08/23 04:43:08;;;;;;;14.35;1.92;;;;;;;13.87;100.00;100375.66;4997517;28;20058;-78
2022/08/23 04:45:37;;;;;;;10.00;2.20;;;;;;;13.77;100.00;100384.16;4974374;28;20320;-77
2022/08/23 04:48:04;;;;;;;5.50;1.77;;;;;;;13.77;100.00;100383.34;4985684;28;20119;-80
2022/08/23 04:50:30;;;;;;;7.13;1.88;;;;;;;13.55;100.00;100337.59;4998261;28;20046;-79
2022/08/23 04:52:55;;;;;;;6.10;1.50;;;;;;;13.73;100.00;100360.47;4963980;28;20046;-78
2022/08/23 04:55:21;;;;;;;8.90;1.90;;;;;;;13.87;100.00;100375.66;4984616;28;20048;-77
2022/08/23 04:57:47;;;;;;;8.15;2.15;;;;;;;13.86;100.00;100373.97;4963811;28;20026;-78
2022/08/23 05:00:14;;;;;;;7.07;1.52;;;;;;;13.78;100.00;100371.47;4972483;28;20041;-78
2022/08/23 05:02:39;;;;;;;8.15;1.45;;;;;;;13.68;100.00;100376.44;4987287;28;20228;-80
2022/08/23 05:05:09;;;;;;;7.40;1.85;;;;;;;13.51;100.00;100390.34;4985313;28;20552;-80
2022/08/23 05:07:36;;;;;;;7.43;1.42;;;;;;;13.37;100.00;100392.19;4973420;28;20495;-80
2022/08/23 05:10:04;;;;;;;10.20;1.63;;;;;;;13.30;100.00;100396.72;5007102;28;20030;-80
2022/08/23 05:12:29;;;;;;;10.98;1.83;;;;;;;13.32;100.00;100410.03;4996465;28;20069;-80
2022/08/23 05:14:55;;;;;;;7.88;1.95;;;;;;;13.34;100.00;100407.97;5005546;28;20148;-79
2022/08/23 05:17:21;;;;;;;5.68;1.50;;;;;;;13.33;100.00;100399.00;5002385;28;20092;-79
2022/08/23 05:19:47;;;;;;;13.82;2.10;;;;;;;13.40;100.00;100413.38;4985710;28;20026;-80
2022/08/23 05:22:12;;;;;;;9.77;1.92;;;;;;;13.50;100.00;100412.19;5000495;28;20034;-80
2022/08/23 05:24:38;;;;;;;10.50;1.83;;;;;;;13.51;100.00;100411.13;5002425;28;20089;-80
2022/08/23 05:27:04;;;;;;;23.50;2.60;;;;;;;13.56;100.00;100412.19;4987726;28;20034;-79
2022/08/23 05:29:29;;;;;;;10.63;1.90;;;;;;;13.61;100.00;100407.00;4969840;28;20122;-80
2022/08/23 05:31:55;;;;;;;14.30;1.73;;;;;;;13.68;100.00;100417.84;4998630;28;20077;-80
2022/08/23 05:34:21;;;;;;;6.07;1.98;;;;;;;13.73;100.00;100419.91;4997557;28;20032;-79
2022/08/23 05:36:47;;;;;;;6.28;1.00;;;;;;;13.48;100.00;100371.03;4982482;28;20269;-79
2022/08/23 05:39:14;;;;;;;9.68;1.65;;;;;;;13.76;100.00;100416.78;4999312;28;20034;-79
2022/08/23 05:41:41;;;;;;;7.00;1.60;;;;;;;13.77;100.00;100419.28;4988485;28;21055;-79
2022/08/23 05:44:07;;;;;;;7.05;1.50;;;;;;;13.72;100.00;100404.75;5005258;28;20038;-79
2022/08/23 05:46:33;;;;;;;9.15;1.63;;;;;;;13.77;100.00;100418.47;4957234;28;20041;-79
2022/08/23 05:48:59;;;;;;;10.75;1.70;;;;;;;13.75;100.00;100417.84;4987111;28;20046;-79
2022/08/23 05:51:27;;;;;;;6.43;1.48;;;;;;;13.81;100.00;100427.81;4997476;28;20465;-78
2022/08/23 05:53:56;;;;;;;8.23;1.40;;;;;;;13.83;100.00;100439.25;4965251;28;20456;-79
2022/08/23 05:56:35;;;;;;;7.38;1.50;;;;;;;13.84;100.00;100430.97;4982218;28;20128;-79
2022/08/23 05:59:05;;;;;;;8.88;1.92;;;;;;;13.90;100.00;100425.78;4986814;28;20037;-79
2022/08/23 06:01:31;;;;;;;6.53;1.40;;;;;;;13.91;100.00;100436.34;4990767;28;20029;-79
2022/08/23 06:04:02;;;;;;;5.50;1.60;;;;;;;13.95;100.00;100426.00;4973693;28;20676;-79
2022/08/23 06:06:28;;;;;;;5.70;1.30;;;;;;;13.96;100.00;100438.44;5000207;28;20042;-79
2022/08/23 06:08:54;;;;;;;4.97;1.30;;;;;;;13.90;100.00;100439.28;4966809;28;20087;-79
2022/08/23 06:11:26;;;;;;;4.80;1.25;;;;;;;13.91;100.00;100439.06;4987098;28;20412;-79
2022/08/23 06:13:54;;;;;;;4.10;1.25;;;;;;;13.90;100.00;100444.69;4994834;28;20041;-79
2022/08/23 06:16:22;;;;;;;8.05;1.85;;;;;;;13.88;100.00;100439.47;4985985;28;20072;-80
2022/08/23 06:18:48;;;;;;;8.65;1.40;;;;;;;13.94;100.00;100449.47;4995650;28;20042;-79
2022/08/23 06:21:14;;;;;;;4.13;1.50;;;;;;;14.00;100.00;100451.34;5005344;28;20472;-79
2022/08/23 06:23:41;;;;;;;4.43;1.00;;;;;;;14.05;100.00;100438.06;5001584;28;20038;-79
2022/08/23 06:26:15;;;;;;;4.50;1.40;;;;;;;14.15;100.00;100445.75;4999007;28;20420;-79
2022/08/23 06:28:43;;;;;;;5.20;1.27;;;;;;;14.26;100.00;100426.22;4989154;28;20472;-80
2022/08/23 06:31:09;;;;;;;7.38;1.35;;;;;;;14.48;100.00;100445.75;5001441;28;20093;-79
2022/08/23 06:33:36;;;;;;;5.50;1.10;;;;;;;14.61;100.00;100441.41;4982060;28;20091;-79
2022/08/23 06:36:12;;;;;;;5.05;1.33;;;;;;;14.59;100.00;100446.19;5003689;28;20042;-79
2022/08/23 06:38:40;;;;;;;5.75;1.35;;;;;;;14.54;100.00;100448.69;4985125;28;20037;-79
2022/08/23 06:41:10;;;;;;;6.47;1.10;;;;;;;14.24;100.00;100403.13;5003957;28;20042;-79
2022/08/23 06:43:37;;;;;;;3.75;1.15;;;;;;;14.53;100.00;100445.16;4980539;28;20030;-79
2022/08/23 06:46:21;;;;;;;11.05;1.42;;;;;;;14.17;100.00;100388.75;4982326;28;20468;-79
2022/08/23 06:48:47;;;;;;;5.97;1.30;;;;;;;14.48;100.00;100444.94;5003932;28;20025;-79
2022/08/23 06:51:30;;;;;;;9.75;1.58;;;;;;;14.47;100.00;100452.22;5000582;28;20034;-79
2022/08/23 06:53:57;;;;;;;6.70;1.77;;;;;;;14.43;100.00;100448.25;4966909;28;20561;-79
2022/08/23 06:56:24;;;;;;;7.40;1.48;;;;;;;14.51;100.00;100456.16;5004029;28;20068;-79
2022/08/23 06:58:51;;;;;;;3.35;1.77;;;;;;;14.60;100.00;100459.50;5001140;28;20480;-80
2022/08/23 07:01:24;;;;;;;8.40;1.65;;;;;;;14.60;100.00;100448.69;5002759;28;20038;-79
2022/08/23 07:03:56;;;;;;;4.20;1.08;;;;;;;14.73;100.00;100447.84;5002232;28;20037;-78
2022/08/23 07:06:23;;;;;;;7.22;1.40;;;;;;;15.01;100.00;100463.00;4983360;28;20103;-79
2022/08/23 07:08:49;;;;;;;6.30;1.02;;;;;;;15.21;100.00;100471.88;4986334;28;20382;-78
2022/08/23 07:11:15;;;;;;;3.55;1.02;;;;;;;15.32;100.00;100459.53;4989265;28;20115;-78
2022/08/23 07:13:41;;;;;;;5.78;1.50;;;;;;;15.47;100.00;100451.16;5000982;28;20034;-79
2022/08/23 07:16:07;;;;;;;4.78;1.10;;;;;;;15.59;100.00;100469.22;4994658;28;20034;-79
2022/08/23 07:18:32;;;;;;;4.60;1.35;;;;;;;15.68;100.00;100475.22;4983597;28;20037;-78
2022/08/23 07:21:01;;;;;;;11.43;2.38;;;;;;;16.02;100.00;100486.75;5002116;28;20034;-78
2022/08/23 07:23:38;;;;;;;4.07;1.17;;;;;;;16.06;100.00;100485.25;4969603;28;20096;-78
2022/08/23 07:26:09;;;;;;;8.27;1.65;;;;;;;15.98;100.00;100501.78;5002967;28;20408;-78
2022/08/23 07:28:35;;;;;;;4.45;1.40;;;;;;;16.03;100.00;100504.69;4995594;28;20122;-79
2022/08/23 07:31:10;;;;;;;5.00;1.40;;;;;;;15.69;100.00;100501.34;4970465;28;20439;-79
2022/08/23 07:33:37;;;;;;;5.60;1.17;;;;;;;15.29;100.00;100504.13;4976694;28;20116;-79
2022/08/23 07:36:04;;;;;;;7.50;1.35;;;;;;;15.01;100.00;100498.19;4968407;28;20482;-79
2022/08/23 07:38:29;;;;;;;6.45;1.30;;;;;;;14.85;100.00;100513.00;4984967;28;20034;-79
2022/08/23 07:40:55;;;;;;;4.63;1.20;;;;;;;14.67;100.00;100508.22;4969992;28;20053;-78
2022/08/23 07:43:20;;;;;;;7.15;1.48;;;;;;;14.59;100.00;100520.09;4975879;28;20042;-79
2022/08/23 07:45:47;;;;;;;5.07;1.33;;;;;;;14.53;100.00;100520.91;4984151;28;20113;-78
2022/08/23 07:48:13;;;;;;;6.60;1.05;;;;;;;14.47;100.00;100514.44;4995224;28;20053;-79
2022/08/23 07:50:39;;;;;;;5.15;1.33;;;;;;;14.54;100.00;100519.03;4989980;28;20084;-78
2022/08/23 07:53:06;;;;;;;7.18;1.70;;;;;;;14.91;100.00;100518.41;5002670;28;20102;-79
2022/08/23 07:55:33;;;;;;;6.13;1.52;;;;;;;15.04;100.00;100516.72;5002180;28;20068;-79
2022/08/23 07:57:59;;;;;;;7.38;1.45;;;;;;;15.14;100.00;100507.13;5003325;28;20388;-78
2022/08/23 08:00:25;;;;;;;5.50;1.83;;;;;;;15.53;100.00;100518.88;5006331;28;20033;-75
2022/08/23 08:02:50;;;;;;;9.13;1.77;;;;;;;15.65;100.00;100527.16;4999501;28;20030;-76
2022/08/23 08:05:16;;;;;;;6.60;1.50;;;;;;;15.86;100.00;100530.66;4983932;28;20026;-76
2022/08/23 08:07:42;;;;;;;6.10;1.75;;;;;;;17.44;100.00;100535.03;4966570;28;20069;-75
2022/08/23 08:10:08;;;;;;;6.72;2.20;;;;;;;17.98;98.98;100534.16;4972143;28;20034;-76
2022/08/23 08:12:34;;;;;;;13.73;2.17;;;;;;;19.19;91.93;100528.50;5001213;28;20037;-76
2022/08/23 08:15:00;;;;;;;8.50;1.60;;;;;;;20.81;83.25;100542.84;4984890;28;20030;-76
2022/08/23 08:17:26;;;;;;;11.00;2.58;;;;;;;22.32;73.52;100546.19;4981656;28;20041;-76
2022/08/23 08:19:51;;;;;;;7.90;1.70;;;;;;;23.48;68.21;100541.84;4989568;28;20037;-75
2022/08/23 08:22:17;;;;;;;4.03;1.58;;;;;;;24.65;61.77;100546.06;4987720;28;20395;-76
2022/08/23 08:24:43;;;;;;;6.25;1.45;;;;;;;24.79;58.33;100535.31;4986139;28;20041;-75
2022/08/23 08:27:09;;;;;;;9.63;1.60;;;;;;;24.86;56.54;100541.38;4984356;28;20038;-76
2022/08/23 08:29:35;;;;;;;3.35;1.33;;;;;;;24.39;58.44;100552.59;5007830;28;20033;-76
2022/08/23 08:32:00;;;;;;;6.50;1.38;;;;;;;25.68;54.61;100549.44;4991591;28;20038;-76
2022/08/23 08:34:26;;;;;;;5.55;1.30;;;;;;;24.17;56.50;100548.16;4973336;28;20498;-76
2022/08/23 08:36:54;;;;;;;8.05;1.48;;;;;;;22.13;64.15;100553.09;4974761;28;20466;-76
2022/08/23 08:39:23;;;;;;;8.25;1.50;;;;;;;21.17;67.47;100558.94;5000104;28;20154;-76
2022/08/23 08:42:07;;;;;;;9.52;1.33;;;;;;;20.73;70.37;100556.09;5006210;28;20034;-76
2022/08/23 08:44:35;;;;;;;11.35;1.70;;;;;;;21.49;67.90;100560.00;4995706;28;20479;-80
2022/08/23 08:47:07;;;;;;;6.80;1.58;;;;;;;21.33;67.97;100522.56;4963587;28;20116;-80
2022/08/23 08:49:42;;;;;;;6.90;1.67;;;;;;;22.17;66.71;100556.94;4994992;28;20468;-80
2022/08/23 08:52:23;;;;;;;6.50;1.38;;;;;;;23.20;61.60;100570.50;4992166;28;20122;-81
2022/08/23 08:54:55;;;;;;;3.78;1.80;;;;;;;25.74;52.92;100570.34;4981721;28;20030;-79
2022/08/23 08:57:21;;;;;;;6.80;1.65;;;;;;;27.13;47.95;100560.06;4969270;28;20043;-80
2022/08/23 08:59:50;;;;;;;5.53;1.45;;;;;;;27.22;47.22;100563.03;4983879;28;20031;-79
2022/08/23 09:02:18;;;;;;;4.35;1.55;;;;;;;27.62;42.80;100566.44;4992587;28;20128;-79
2022/08/23 09:04:45;;;;;;;4.20;1.40;;;;;;;27.27;43.53;100554.69;4974884;28;20494;-80
2022/08/23 09:07:26;;;;;;;3.47;1.58;;;;;;;28.55;40.38;100555.81;4986406;28;20077;-79
2022/08/23 09:10:30;;;;;;;4.90;1.27;;;;;;;27.10;41.33;100557.91;5000572;28;20116;-80
2022/08/23 09:13:17;;;;;;;6.65;1.30;;;;;;;24.61;47.09;100560.63;4983610;28;20180;-79
2022/08/23 09:15:51;;;;;;;7.22;1.63;;;;;;;22.90;51.62;100564.78;5012307;28;20029;-79
2022/08/23 09:18:17;;;;;;;5.15;1.45;;;;;;;21.78;55.27;100546.13;5006174;28;20034;-79
2022/08/23 09:20:45;;;;;;;5.88;1.48;;;;;;;21.33;58.56;100558.09;5000907;28;20030;-80
2022/08/23 09:23:16;;;;;;;5.78;1.95;;;;;;;22.46;57.71;100548.50;5007210;28;20062;-80
2022/08/23 09:25:51;;;;;;;5.00;1.38;;;;;;;22.79;56.35;100563.88;4983391;28;20061;-79
2022/08/23 09:28:16;;;;;;;7.68;1.67;;;;;;;22.59;56.03;100557.13;4965453;28;20607;-79
2022/08/23 09:30:45;;;;;;;5.70;2.03;;;;;;;23.89;52.98;100544.78;4979313;28;20526;-80
2022/08/23 09:33:18;;;;;;;4.03;1.40;;;;;;;24.55;50.38;100551.53;5004960;28;20983;-80
2022/08/23 09:35:43;;;;;;;;;;;;;;;25.80;47.47;100565.63;5005417;28;20053;-80
2022/08/23 09:38:19;;;;;;;6.03;1.80;;;;;;;28.12;42.75;100558.63;4976770;28;20371;-80
2022/08/23 09:40:48;;;;;;;3.00;1.52;;;;;;;29.75;38.17;100571.66;4991648;28;20045;-79
2022/08/23 09:43:17;;;;;;;4.97;1.10;;;;;;;27.86;40.86;100565.63;5008947;28;20046;-79
2022/08/23 09:45:48;;;;;;;6.88;1.50;;;;;;;26.57;43.29;100568.00;4998631;28;20398;-79
2022/08/23 09:48:32;;;;;;;4.30;1.52;;;;;;;26.94;42.36;100553.63;5001670;28;20034;-79
2022/08/23 09:51:06;;;;;;;4.53;1.50;;;;;;;27.54;41.52;100559.63;4988904;28;20052;-80
2022/08/23 09:53:32;;;;;;;11.88;1.70;;;;;;;27.58;41.02;100554.34;4991142;28;20037;-80
2022/08/23 09:56:12;;;;;;;3.97;1.33;;;;;;;29.49;37.38;100562.19;4989166;28;20049;-80
2022/08/23 09:58:45;;;;;;;3.50;1.40;;;;;;;27.39;41.63;100559.84;4979331;28;20036;-79
2022/08/23 10:01:23;;;;;;;4.13;1.20;;;;;;;26.06;44.52;100549.84;4984001;28;20038;-78
2022/08/23 10:04:12;;;;;;;4.43;1.67;;;;;;;27.53;41.38;100558.00;4981759;28;20037;-79
2022/08/23 10:06:39;;;;;;;4.00;1.20;;;;;;;28.00;39.89;100539.75;5006457;28;20049;-79
2022/08/23 10:09:06;;;;;;;5.97;1.20;;;;;;;28.14;40.41;100544.53;4988612;28;20073;-79
2022/08/23 10:11:37;;;;;;;5.50;1.48;;;;;;;27.50;41.53;100547.53;4972831;28;20022;-79
2022/08/23 10:14:03;;;;;;;3.10;1.00;;;;;;;26.97;41.67;100555.81;4971287;28;20061;-81
2022/08/23 10:16:53;;;;;;;4.68;1.00;;;;;;;24.60;47.34;100557.03;4990834;28;20479;-78
2022/08/23 10:19:48;;;;;;;5.55;1.20;;;;;;;22.80;52.12;100552.63;5002623;28;20057;-79
2022/08/23 10:22:21;;;;;;;6.78;1.02;;;;;;;21.60;56.80;100547.28;5007362;28;20483;-80
2022/08/23 10:24:53;;;;;;;3.55;1.55;;;;;;;21.78;56.91;100542.53;4978639;28;20026;-80
2022/08/23 10:30:58;;;;;;;2.63;1.13;;;;;;;27.16;40.13;100545.69;5008797;28;20030;-80
2022/08/23 10:33:42;;;;;;;3.90;1.15;;;;;;;27.20;39.35;100537.66;4986519;28;20036;-81
2022/08/23 10:36:25;;;;;;;4.05;1.63;;;;;;;29.28;34.97;100536.84;4983831;28;20490;-79
2022/08/23 10:39:02;;;;;;;4.03;1.40;;;;;;;28.57;36.38;100536.97;4980944;28;20030;-80
2022/08/23 10:41:46;;;;;;;5.00;1.70;;;;;;;28.38;37.60;100538.91;4973646;28;20192;-80
2022/08/23 10:44:24;;;;;;;2.17;1.30;;;;;;;30.09;33.77;100552.91;5009059;28;20364;-80
2022/08/23 10:47:27;;;;;;;2.67;1.27;;;;;;;31.33;31.75;100542.03;4993396;28;20038;-80
2022/08/23 10:49:54;;;;;;;2.40;1.42;;;;;;;32.41;30.87;100549.94;5006365;28;20499;-80
2022/08/23 10:52:35;;;;;;;3.45;1.35;;;;;;;33.22;29.16;100537.22;4990559;28;20037;-81
2022/08/23 10:55:15;;;;;;;5.53;1.67;;;;;;;33.64;28.05;100537.38;4976549;28;20052;-80
2022/08/23 10:57:43;;;;;;;2.10;1.35;;;;;;;33.31;27.57;100535.22;4989033;28;20042;-80
2022/08/23 11:00:21;;;;;;;3.65;1.30;;;;;;;32.52;28.56;100530.97;4993134;28;20056;-80
2022/08/23 11:02:56;;;;;;;3.63;1.48;;;;;;;31.72;30.74;100539.56;4985912;28;20030;-79
2022/08/23 11:05:30;;;;;;;2.78;1.63;;;;;;;32.91;28.38;100541.06;4990633;28;20038;-80
2022/08/23 11:08:06;;;;;;;3.33;1.65;;;;;;;33.86;26.03;100531.47;4975594;28;20041;-79
2022/08/23 11:10:45;;;;;;;3.85;1.25;;;;;;;30.89;30.75;100541.00;4988214;28;20065;-80
2022/08/23 11:13:17;;;;;;;2.42;0.90;;;;;;;28.35;33.57;100542.28;5006829;28;20124;-79
2022/08/23 11:15:54;;;;;;;3.47;1.27;;;;;;;26.58;37.83;100545.66;4990304;28;20132;-79
2022/08/23 11:18:37;;;;;;;3.30;1.10;;;;;;;25.26;40.88;100547.13;5002501;28;20034;-79
2022/08/23 11:21:09;;;;;;;5.00;1.15;;;;;;;24.55;43.42;100546.88;4986572;28;20040;-79
2022/08/23 11:23:45;;;;;;;3.70;1.23;;;;;;;24.09;43.97;100544.03;5008511;28;20091;-79
2022/08/23 11:26:27;;;;;;;3.35;1.70;;;;;;;24.97;43.43;100554.00;5005848;28;20042;-80
2022/08/23 11:29:16;;;;;;;3.50;1.75;;;;;;;27.90;36.56;100542.66;4999008;28;20039;-76
2022/08/23 11:31:47;;;;;;;2.20;1.00;;;;;;;28.04;35.85;100553.78;5002144;28;20129;-81
2022/08/23 11:34:39;;;;;;;4.40;1.50;;;;;;;27.47;36.03;100548.13;4982543;28;20399;-77
2022/08/23 11:37:17;;;;;;;4.47;1.40;;;;;;;25.52;40.13;100553.38;4975478;28;20047;-77
2022/08/23 11:39:58;;;;;;;4.43;1.50;;;;;;;24.66;41.35;100564.19;4993983;28;20063;-78
2022/08/23 11:42:36;;;;;;;4.65;2.20;;;;;;;24.22;41.68;100547.38;4987972;28;20113;-80